Time;durP1;ratioP1;P1;durP2;ratioP2;P2;SDS_P1;SDS_P2;PMS_P1;PMS_P2;Temp;Humidity;BMP_temperature;BMP_pressure;BME280_temperature;BME280_humidity;BME280_pressure;Samples;Min_cycle;Max_cycle;Signal;HPM_P1;HPM_P2
2022/09/07 00:01:04;;;;;;;3.25;0.90;;;;;;;18.17;81.58;100032.94;5074599;28;20463;-76
2022/09/07 00:03:30;;;;;;;2.17;0.88;;;;;;;17.98;82.75;100023.03;5074531;28;20117;-75
2022/09/07 00:05:55;;;;;;;;;;;;;;;17.83;83.68;100022.16;5074820;28;20095;-75
2022/09/07 00:08:23;;;;;;;2.28;0.73;;;;;;;17.78;84.70;100030.78;5074215;28;19919;-75
2022/09/07 00:10:56;;;;;;;1.50;0.60;;;;;;;17.61;85.38;100034.97;5073949;28;20040;-75
2022/09/07 00:13:22;;;;;;;2.13;0.82;;;;;;;17.49;87.10;100016.03;5074256;28;20490;-75
2022/09/07 00:15:48;;;;;;;3.65;0.80;;;;;;;17.48;88.14;100017.22;5074342;28;20044;-75
2022/09/07 00:18:14;;;;;;;1.73;0.88;;;;;;;17.37;89.07;100019.09;5074492;28;20067;-74
2022/09/07 00:20:39;;;;;;;;;;;;;;;17.34;90.37;100023.41;5074480;28;20111;-75
2022/09/07 00:23:04;;;;;;;2.23;0.80;;;;;;;17.19;91.15;100012.69;5074089;28;20431;-76
2022/09/07 00:25:30;;;;;;;2.10;0.90;;;;;;;17.16;92.19;100007.94;5073904;28;20271;-76
2022/09/07 00:27:55;;;;;;;;;;;;;;;17.08;92.85;99998.81;5074571;28;20032;-76
2022/09/07 00:30:20;;;;;;;2.27;0.80;;;;;;;16.94;93.26;100006.97;5073777;28;19963;-75
2022/09/07 00:32:45;;;;;;;1.95;0.70;;;;;;;16.91;93.93;100005.75;5074074;28;20263;-75
2022/09/07 00:35:11;;;;;;;;;;;;;;;16.98;94.73;100016.84;5074348;28;20430;-76
2022/09/07 00:37:37;;;;;;;1.30;0.60;;;;;;;16.89;95.25;100016.34;5073926;28;19913;-75
2022/09/07 00:40:02;;;;;;;;;;;;;;;16.82;96.11;100033.59;5074149;28;20028;-75
2022/09/07 00:42:28;;;;;;;2.30;0.80;;;;;;;16.66;96.58;100030.25;5073548;28;19938;-76
2022/09/07 00:45:12;;;;;;;;;;;;;;;16.62;97.81;100034.13;5074422;28;20037;-75
2022/09/07 00:48:13;;;;;;;3.65;1.00;;;;;;;16.49;99.81;100031.66;5073701;28;19942;-74
2022/09/07 00:51:03;;;;;;;2.08;0.85;;;;;;;16.41;100.00;100026.44;5073847;28;20093;-77
2022/09/07 00:53:33;;;;;;;2.60;0.90;;;;;;;16.41;100.00;100029.19;5073711;28;20029;-76
2022/09/07 00:55:59;;;;;;;2.00;0.63;;;;;;;16.33;100.00;100022.03;5074014;28;20029;-79
2022/09/07 00:58:26;;;;;;;1.48;0.63;;;;;;;16.32;100.00;100018.50;5073616;28;20111;-78
2022/09/07 01:03:32;;;;;;;2.22;0.70;;;;;;;16.28;100.00;100012.16;5959858;22;20114;-77
2022/09/07 01:06:05;;;;;;;3.03;0.65;;;;;;;16.21;100.00;100012.88;5013220;28;20038;-78
2022/09/07 01:08:31;;;;;;;2.80;1.17;;;;;;;16.17;100.00;100006.56;5013695;28;20460;-78
2022/09/07 01:10:58;;;;;;;3.20;0.70;;;;;;;16.14;100.00;99995.53;5013390;28;20132;-79
2022/09/07 01:13:23;;;;;;;1.40;0.68;;;;;;;16.13;100.00;99985.72;5012360;28;20034;-80
2022/09/07 01:15:57;;;;;;;1.90;0.60;;;;;;;16.11;100.00;99971.53;5013265;28;20373;-80
2022/09/07 01:18:53;;;;;;;1.83;0.65;;;;;;;16.11;100.00;99968.81;5013369;28;20455;-80
2022/09/07 01:21:25;;;;;;;2.47;0.68;;;;;;;16.09;100.00;99952.69;5013464;28;20034;-80
2022/09/07 01:24:12;;;;;;;1.83;0.60;;;;;;;16.08;100.00;99947.59;5013231;28;20037;-80
2022/09/07 01:27:07;;;;;;;1.90;0.57;;;;;;;16.15;100.00;99945.72;5013071;28;20026;-80
2022/09/07 01:29:51;;;;;;;1.45;0.52;;;;;;;16.15;100.00;99953.97;5013573;28;20041;-80
2022/09/07 01:32:26;;;;;;;2.20;1.05;;;;;;;16.23;100.00;99932.84;5013319;28;20034;-80
2022/09/07 01:34:53;;;;;;;2.75;0.75;;;;;;;16.25;100.00;99925.00;5013054;28;20385;-79
2022/09/07 01:37:48;;;;;;;2.08;0.70;;;;;;;16.63;100.00;99934.00;5012911;28;20057;-80
2022/09/07 01:40:34;;;;;;;2.95;0.77;;;;;;;16.74;100.00;99935.69;5013179;28;20034;-79
2022/09/07 01:43:05;;;;;;;1.20;0.50;;;;;;;16.72;100.00;99923.50;5013318;28;20030;-80
2022/09/07 01:45:35;;;;;;;1.90;0.63;;;;;;;16.68;100.00;99925.44;5011249;28;20084;-79
2022/09/07 01:48:05;;;;;;;1.45;0.55;;;;;;;16.73;100.00;99908.59;5012702;28;20153;-78
2022/09/07 01:50:45;;;;;;;0.88;0.52;;;;;;;16.87;100.00;99921.66;5013119;28;20034;-79
2022/09/07 01:53:23;;;;;;;2.00;0.60;;;;;;;16.82;100.00;99909.06;5013111;28;20115;-79
2022/09/07 01:55:55;;;;;;;2.55;0.70;;;;;;;16.67;100.00;99902.66;5012771;28;20036;-79
2022/09/07 01:58:25;;;;;;;2.28;0.90;;;;;;;16.64;100.00;99894.38;5012840;28;20034;-79
2022/09/07 02:01:01;;;;;;;1.25;0.60;;;;;;;16.60;100.00;99899.03;5012878;28;20041;-80
2022/09/07 02:03:33;;;;;;;3.40;0.73;;;;;;;16.63;100.00;99896.31;5012486;28;20054;-78
2022/09/07 02:06:11;;;;;;;1.08;0.50;;;;;;;16.72;100.00;99883.06;5012673;28;20038;-78
2022/09/07 02:08:42;;;;;;;1.25;0.50;;;;;;;16.68;100.00;99873.22;5012558;28;20057;-79
2022/09/07 02:11:17;;;;;;;1.05;0.50;;;;;;;16.70;100.00;99874.41;5012420;28;20042;-78
2022/09/07 02:13:48;;;;;;;1.67;0.52;;;;;;;16.68;100.00;99868.50;5012571;28;20026;-78
2022/09/07 02:16:19;;;;;;;3.67;0.77;;;;;;;16.65;100.00;99865.69;5012537;28;20053;-79
2022/09/07 02:18:49;;;;;;;1.88;0.60;;;;;;;16.62;100.00;99866.44;5016310;28;20045;-78
2022/09/07 02:21:18;;;;;;;1.63;0.70;;;;;;;16.71;100.00;99865.00;5016544;28;20543;-77
2022/09/07 02:23:49;;;;;;;2.25;0.60;;;;;;;16.72;100.00;99854.78;5015111;28;20034;-78
2022/09/07 02:26:18;;;;;;;1.17;0.55;;;;;;;16.79;100.00;99860.31;5016501;28;20029;-78
2022/09/07 02:28:44;;;;;;;3.22;0.63;;;;;;;16.58;100.00;99854.63;5016154;28;20469;-78
2022/09/07 02:31:09;;;;;;;1.70;0.70;;;;;;;16.58;100.00;99851.88;5016160;28;20060;-78
2022/09/07 02:33:35;;;;;;;1.05;0.60;;;;;;;16.61;100.00;99842.88;5016009;28;20034;-78
2022/09/07 02:36:00;;;;;;;;;;;;;;;16.62;100.00;99838.94;5016689;28;20036;-78
2022/09/07 02:38:27;;;;;;;2.17;0.90;;;;;;;16.65;100.00;99839.00;5014941;28;19968;-78
2022/09/07 02:40:55;;;;;;;1.90;0.70;;;;;;;16.77;99.25;99851.66;5015910;28;20030;-78
2022/09/07 02:43:22;;;;;;;1.92;0.80;;;;;;;16.83;100.00;99833.66;5016348;28;20116;-79
2022/09/07 02:46:22;;;;;;;3.35;0.50;;;;;;;16.98;98.80;99835.31;5016047;28;20030;-77
2022/09/07 02:49:00;;;;;;;1.08;0.40;;;;;;;16.96;98.19;99829.38;5016224;28;20403;-77
2022/09/07 02:52:02;;;;;;;2.75;0.60;;;;;;;16.83;98.36;99828.16;5016012;28;20108;-78
2022/09/07 02:54:53;;;;;;;2.08;0.63;;;;;;;16.64;98.84;99820.16;5016432;28;20030;-77
2022/09/07 02:57:46;;;;;;;1.15;0.47;;;;;;;16.57;99.54;99820.88;5016005;28;20101;-78
2022/09/07 03:00:19;;;;;;;1.73;0.60;;;;;;;16.55;99.42;99821.25;5015903;28;20057;-78
2022/09/07 03:02:47;;;;;;;1.13;0.50;;;;;;;16.58;98.92;99821.66;5015928;28;20111;-78
2022/09/07 03:05:32;;;;;;;2.88;0.60;;;;;;;16.65;98.62;99824.47;5016275;28;20503;-78
2022/09/07 03:08:12;;;;;;;1.83;0.68;;;;;;;16.65;98.49;99824.47;5015965;28;20038;-78
2022/09/07 03:10:39;;;;;;;0.98;0.50;;;;;;;16.65;98.25;99835.47;5015562;28;20032;-78
2022/09/07 03:13:05;;;;;;;1.77;0.50;;;;;;;16.65;98.77;99838.22;5015899;28;20034;-79
2022/09/07 03:15:30;;;;;;;0.98;0.50;;;;;;;16.63;98.31;99840.53;5015495;28;20040;-78
2022/09/07 03:17:55;;;;;;;;;;;;;;;16.63;98.77;99832.28;5014970;28;20049;-78
2022/09/07 03:20:21;;;;;;;1.90;0.50;;;;;;;16.61;99.25;99838.16;5015612;28;20295;-78
2022/09/07 03:22:48;;;;;;;1.83;0.50;;;;;;;16.62;99.95;99833.47;5015510;28;20495;-78
2022/09/07 03:25:15;;;;;;;4.88;1.25;;;;;;;16.61;99.73;99838.16;5014381;28;20037;-78
2022/09/07 03:27:41;;;;;;;1.42;0.50;;;;;;;16.55;100.00;99835.00;5014808;28;20033;-78
2022/09/07 03:30:07;;;;;;;;;;;;;;;16.58;100.00;99843.66;5015934;28;20386;-77
2022/09/07 03:32:34;;;;;;;2.10;0.80;;;;;;;16.50;100.00;99843.59;5015265;28;20353;-77
2022/09/07 03:35:00;;;;;;;1.95;0.65;;;;;;;16.46;100.00;99842.78;5015263;28;20526;-78
2022/09/07 03:37:26;;;;;;;1.70;0.65;;;;;;;16.45;100.00;99852.19;5015231;28;20026;-78
2022/09/07 03:39:52;;;;;;;;;;;;;;;16.44;100.00;99845.09;5015850;28;20080;-78
2022/09/07 03:42:17;;;;;;;2.67;1.08;;;;;;;16.45;100.00;99840.41;5015575;28;19913;-78
2022/09/07 03:44:43;;;;;;;;;;;;;;;16.50;100.00;99843.59;5015576;28;20034;-78
2022/09/07 03:47:08;;;;;;;2.00;0.70;;;;;;;16.52;100.00;99835.75;5015082;28;19913;-78
2022/09/07 03:49:33;;;;;;;;;;;;;;;16.44;100.00;99838.81;5015364;28;20298;-78
2022/09/07 03:51:59;;;;;;;2.70;0.90;;;;;;;16.43;100.00;99840.78;5014985;28;19953;-78
2022/09/07 03:54:24;;;;;;;1.73;0.68;;;;;;;16.48;100.00;99840.44;5015279;28;20348;-79
2022/09/07 03:56:50;;;;;;;;;;;;;;;16.41;100.00;99845.88;5013737;28;20030;-77
2022/09/07 03:59:15;;;;;;;2.57;0.70;;;;;;;16.33;100.00;99841.50;5014647;28;19913;-77
2022/09/07 04:01:40;;;;;;;2.72;0.80;;;;;;;16.35;100.00;99847.41;5014722;28;20314;-78
2022/09/07 04:04:06;;;;;;;1.88;0.68;;;;;;;16.39;100.00;99837.22;5014299;28;20397;-77
2022/09/07 04:06:31;;;;;;;;;;;;;;;16.43;100.00;99854.53;5015210;28;20476;-77
2022/09/07 04:09:02;;;;;;;3.10;1.10;;;;;;;16.48;100.00;99843.19;5015058;28;19920;-77
2022/09/07 04:11:27;;;;;;;3.10;1.02;;;;;;;16.43;100.00;99850.97;5014498;28;20522;-77
2022/09/07 04:13:52;;;;;;;3.05;1.23;;;;;;;16.36;100.00;99850.94;5014485;28;20025;-77
2022/09/07 04:16:19;;;;;;;;;;;;;;;16.35;100.00;99844.66;5015114;28;20516;-77
2022/09/07 04:18:45;;;;;;;4.57;1.17;;;;;;;16.40;100.00;99838.00;5014504;28;19920;-78
2022/09/07 04:21:11;;;;;;;3.97;1.10;;;;;;;16.69;100.00;99830.81;5014628;28;20045;-78
2022/09/07 04:23:38;;;;;;;3.72;1.23;;;;;;;16.48;100.00;99829.47;5014573;28;20034;-79
2022/09/07 04:26:04;;;;;;;3.55;1.17;;;;;;;16.44;100.00;99823.13;5014625;28;20137;-78
2022/09/07 04:28:29;;;;;;;5.78;1.50;;;;;;;16.36;100.00;99832.50;5014417;28;20065;-79
2022/09/07 04:30:59;;;;;;;3.78;1.10;;;;;;;16.24;100.00;99833.56;5013965;28;20139;-79
2022/09/07 04:33:25;;;;;;;3.70;1.40;;;;;;;16.24;100.00;99835.53;5014080;28;20034;-78
2022/09/07 04:35:50;;;;;;;2.92;1.17;;;;;;;16.22;100.00;99832.38;5014237;28;20029;-78
2022/09/07 04:38:15;;;;;;;;;;;;;;;16.20;100.00;99829.22;5014466;28;20472;-78
2022/09/07 04:40:41;;;;;;;3.20;1.10;;;;;;;16.16;100.00;99834.69;5012843;28;19928;-79
2022/09/07 04:43:08;;;;;;;3.17;1.00;;;;;;;16.10;100.00;99836.19;5013894;28;20042;-79
2022/09/07 04:45:36;;;;;;;4.40;1.10;;;;;;;16.14;100.00;99831.53;5013481;28;20030;-78
2022/09/07 04:48:02;;;;;;;3.00;1.23;;;;;;;16.23;100.00;99836.69;5013747;28;20034;-80
2022/09/07 04:50:27;;;;;;;3.08;1.20;;;;;;;16.20;100.00;99835.50;5013911;28;20037;-81
2022/09/07 04:52:53;;;;;;;3.15;1.20;;;;;;;16.18;100.00;99826.06;5013549;28;20046;-80
2022/09/07 04:55:18;;;;;;;;;;;;;;;16.19;100.00;99828.44;5014512;28;20065;-85
2022/09/07 04:57:43;;;;;;;2.80;0.97;;;;;;;16.15;100.00;99832.31;5014533;28;19924;-86
2022/09/07 05:00:10;;;;;;;3.53;1.40;;;;;;;16.25;100.00;99832.41;5013619;28;20300;-86
2022/09/07 05:02:36;;;;;;;3.90;1.55;;;;;;;16.08;100.00;99826.75;5015095;28;20033;-82
2022/09/07 05:05:02;;;;;;;3.00;1.20;;;;;;;16.07;100.00;99825.97;5013952;28;20054;-82
2022/09/07 05:07:27;;;;;;;3.08;1.20;;;;;;;16.67;99.95;99820.19;5015200;28;20041;-84
2022/09/07 05:09:52;;;;;;;;;;;;;;;16.62;98.89;99836.22;5014805;28;20147;-82
2022/09/07 05:12:18;;;;;;;3.20;1.40;;;;;;;16.75;98.94;99837.50;5014589;28;20015;-83
2022/09/07 05:14:43;;;;;;;3.35;1.42;;;;;;;16.63;98.65;99829.53;5013963;28;20688;-84
2022/09/07 05:17:09;;;;;;;4.22;1.48;;;;;;;16.49;99.47;99831.03;5014140;28;20030;-83
2022/09/07 05:19:34;;;;;;;;;;;;;;;16.41;100.00;99840.38;5014690;28;20108;-83
2022/09/07 05:21:59;;;;;;;4.57;1.70;;;;;;;16.72;99.40;99833.56;5013916;28;19913;-83
2022/09/07 05:24:25;;;;;;;4.78;1.88;;;;;;;16.75;98.60;99834.75;5014343;28;20272;-83
2022/09/07 05:26:51;;;;;;;;;;;;;;;16.44;99.80;99838.81;5014546;28;20041;-82
2022/09/07 05:29:16;;;;;;;4.10;1.70;;;;;;;16.44;100.00;99839.63;5012747;28;19917;-83
2022/09/07 05:31:41;;;;;;;;;;;;;;;16.53;99.68;99842.84;5013640;28;20034;-82
2022/09/07 05:34:07;;;;;;;4.93;1.90;;;;;;;16.53;99.88;99834.59;5013139;28;19996;-84
2022/09/07 05:36:33;;;;;;;4.65;1.60;;;;;;;16.55;99.97;99834.22;5014765;28;20037;-83
2022/09/07 05:38:58;;;;;;;5.57;2.22;;;;;;;16.54;100.00;99843.63;5014122;28;20034;-83
2022/09/07 05:41:25;;;;;;;6.63;1.92;;;;;;;16.40;100.00;99844.28;5013757;28;20034;-82
2022/09/07 05:43:52;;;;;;;3.55;1.58;;;;;;;16.46;100.00;99844.72;5013603;28;20026;-81
2022/09/07 05:46:18;;;;;;;5.88;2.30;;;;;;;16.58;100.00;99843.66;5012054;28;20030;-82
2022/09/07 05:48:44;;;;;;;6.65;2.10;;;;;;;16.84;98.80;99844.25;5013273;28;20041;-82
2022/09/07 05:51:09;;;;;;;;;;;;;;;16.76;98.44;99839.88;5014117;28;20038;-83
2022/09/07 05:53:37;;;;;;;5.93;2.10;;;;;;;16.88;98.12;99841.53;5014660;28;20269;-82
2022/09/07 05:56:04;;;;;;;7.78;2.15;;;;;;;16.86;98.02;99843.88;5013582;28;20030;-81
2022/09/07 05:58:30;;;;;;;4.55;2.17;;;;;;;16.70;99.29;99851.63;5013563;28;20057;-81
2022/09/07 06:01:00;;;;;;;6.72;2.40;;;;;;;16.75;98.36;99848.50;5011959;28;20362;-80
2022/09/07 06:03:26;;;;;;;5.32;2.13;;;;;;;16.71;98.84;99858.69;5012033;28;20084;-78
2022/09/07 06:06:06;;;;;;;4.88;2.30;;;;;;;16.86;98.73;99865.09;5012547;28;20030;-76
2022/09/07 06:08:33;;;;;;;5.35;2.17;;;;;;;16.79;98.87;99863.06;5012465;28;20117;-75
2022/09/07 06:11:05;;;;;;;4.65;2.20;;;;;;;16.72;98.76;99854.78;5012470;28;20558;-77
2022/09/07 06:13:30;;;;;;;5.50;2.08;;;;;;;16.85;98.51;99853.31;5012702;28;20400;-76
2022/09/07 06:16:02;;;;;;;3.83;1.83;;;;;;;16.98;98.33;99853.78;5012355;28;20101;-77
2022/09/07 06:18:33;;;;;;;5.22;2.25;;;;;;;16.95;97.47;99849.81;5012710;28;20045;-76
2022/09/07 06:21:06;;;;;;;7.72;2.80;;;;;;;17.03;97.16;99851.44;5012856;28;20456;-77
2022/09/07 06:23:33;;;;;;;5.40;2.42;;;;;;;16.93;97.81;99849.41;5011484;28;20034;-76
2022/09/07 06:25:59;;;;;;;4.65;2.53;;;;;;;16.93;97.92;99859.63;5012676;28;20034;-76
2022/09/07 06:28:32;;;;;;;;;;;;;;;17.20;96.50;99858.22;5013006;28;20032;-75
2022/09/07 06:31:03;;;;;;;5.68;2.30;;;;;;;16.93;97.53;99860.41;5012427;28;19909;-76
2022/09/07 06:33:28;;;;;;;6.72;2.88;;;;;;;16.94;97.55;99858.44;5012386;28;20128;-75
2022/09/07 06:35:59;;;;;;;5.53;2.40;;;;;;;17.02;97.97;99857.34;5012609;28;20504;-75
2022/09/07 06:38:28;;;;;;;5.57;2.40;;;;;;;17.35;96.03;99870.88;5012542;28;20129;-76
2022/09/07 06:40:53;;;;;;;9.18;3.10;;;;;;;17.38;95.88;99869.31;5011984;28;20445;-75
2022/09/07 06:43:19;;;;;;;;;;;;;;;17.18;96.53;99870.78;5013124;28;20034;-76
2022/09/07 06:45:51;;;;;;;5.90;2.40;;;;;;;17.37;96.62;99876.00;5012485;28;20367;-76
2022/09/07 06:48:16;;;;;;;4.93;2.47;;;;;;;17.29;97.16;99874.34;5012019;28;20109;-75
2022/09/07 06:50:41;;;;;;;;;;;;;;;17.26;97.14;99884.19;5012433;28;20130;-75
2022/09/07 06:53:07;;;;;;;4.45;2.10;;;;;;;17.29;97.48;99879.88;5012433;28;20422;-74
2022/09/07 06:55:32;;;;;;;;;;;;;;;17.34;97.29;99876.75;5012429;28;20033;-75
2022/09/07 06:57:57;;;;;;;5.27;2.37;;;;;;;17.20;97.42;99884.94;5012198;28;20307;-75
2022/09/07 07:00:23;;;;;;;;;;;;;;;17.34;97.01;99890.53;5012771;28;20292;-74
2022/09/07 07:02:48;;;;;;;7.60;2.22;;;;;;;17.35;97.25;99886.59;5012686;28;19933;-75
2022/09/07 07:05:13;;;;;;;;;;;;;;;17.34;97.45;99896.03;5014510;28;20513;-74
2022/09/07 07:07:39;;;;;;;5.20;2.20;;;;;;;17.56;96.31;99894.16;5014533;28;20291;-76
2022/09/07 07:10:04;;;;;;;;;;;;;;;17.62;96.39;99895.34;5015923;28;20033;-75
2022/09/07 07:12:32;;;;;;;4.30;1.90;;;;;;;17.71;96.29;99891.09;5015658;28;19920;-77
2022/09/07 07:14:59;;;;;;;8.07;2.70;;;;;;;17.80;95.72;99895.44;5017796;28;20034;-78
2022/09/07 07:17:24;;;;;;;5.00;2.08;;;;;;;17.82;94.89;99899.41;5017029;28;20460;-79
2022/09/07 07:19:49;;;;;;;;;;;;;;;17.89;94.93;99901.38;5017328;28;20030;-78
2022/09/07 07:22:15;;;;;;;4.18;1.70;;;;;;;18.02;94.42;99897.09;5017423;28;19980;-80
2022/09/07 07:24:40;;;;;;;;;;;;;;;18.17;94.19;99895.16;5016600;28;20096;-78
2022/09/07 07:27:06;;;;;;;4.53;1.60;;;;;;;18.08;94.43;99901.03;5016431;28;20011;-78
2022/09/07 07:29:34;;;;;;;;;;;;;;;18.18;94.34;99908.56;5017524;28;20052;-79
2022/09/07 07:32:05;;;;;;;5.72;1.85;;;;;;;18.21;93.94;99906.97;5014895;28;19928;-79
2022/09/07 07:34:30;;;;;;;4.50;1.90;;;;;;;18.20;93.62;99913.66;5016124;28;20133;-79
2022/09/07 07:36:56;;;;;;;3.63;1.55;;;;;;;18.22;93.85;99917.59;5015733;28;20112;-80
2022/09/07 07:39:21;;;;;;;3.88;1.58;;;;;;;18.27;93.36;99917.22;5015449;28;20037;-79
2022/09/07 07:41:47;;;;;;;4.65;1.40;;;;;;;18.52;93.04;99913.72;5015082;28;20045;-80
2022/09/07 07:44:12;;;;;;;4.07;1.75;;;;;;;18.59;92.18;99920.00;5015001;28;20052;-78
2022/09/07 07:46:37;;;;;;;;;;;;;;;18.76;91.64;99918.47;5014332;28;20033;-79
2022/09/07 07:49:41;;;;;;;3.83;1.63;;;;;;;18.92;91.38;99924.38;5016685;28;19913;-80
2022/09/07 07:52:07;;;;;;;4.50;2.15;;;;;;;19.00;90.48;99927.13;5007885;28;20118;-77
2022/09/07 07:54:35;;;;;;;4.20;1.90;;;;;;;19.03;91.29;99931.84;5014937;28;20033;-79
2022/09/07 07:57:01;;;;;;;5.55;2.30;;;;;;;19.24;89.76;99932.59;5015367;28;20091;-80
2022/09/07 07:59:26;;;;;;;4.72;2.20;;;;;;;19.25;89.96;99933.38;5015118;28;20029;-80
2022/09/07 08:01:52;;;;;;;6.88;2.95;;;;;;;19.33;89.27;99939.69;5015877;28;20373;-80
2022/09/07 08:04:17;;;;;;;;;;;;;;;19.25;88.19;99936.16;5015535;28;20077;-80
2022/09/07 08:06:43;;;;;;;5.80;2.70;;;;;;;19.38;87.17;99934.53;5015559;28;19913;-81
2022/09/07 08:09:11;;;;;;;5.40;3.03;;;;;;;19.31;87.75;99945.59;5014851;28;20037;-80
2022/09/07 08:11:38;;;;;;;6.15;3.22;;;;;;;19.27;87.28;99941.25;5014901;28;20105;-80
2022/09/07 08:14:05;;;;;;;6.38;3.45;;;;;;;19.14;86.83;99947.19;5014110;28;20034;-80
2022/09/07 08:16:32;;;;;;;5.10;2.60;;;;;;;19.06;87.82;99953.91;5016250;28;20041;-79
2022/09/07 08:18:58;;;;;;;6.75;3.65;;;;;;;19.00;87.43;99957.47;5016264;28;20033;-79
2022/09/07 08:21:24;;;;;;;7.50;3.65;;;;;;;18.96;88.70;99956.69;5016276;28;20105;-80
2022/09/07 08:23:49;;;;;;;10.98;4.57;;;;;;;18.84;89.17;99957.88;5015084;28;20026;-81
2022/09/07 08:26:15;;;;;;;;;;;;;;;18.76;89.53;99956.28;5017049;28;20483;-79
2022/09/07 08:28:44;;;;;;;8.75;4.60;;;;;;;18.74;90.12;99942.88;5016470;28;19959;-80
2022/09/07 08:31:17;;;;;;;7.85;4.68;;;;;;;18.68;90.77;99946.44;5016011;28;20137;-81
2022/09/07 08:33:59;;;;;;;;;;;;;;;;;;;;;
2022/09/07 08:36:49;;;;;;;8.85;4.60;;;;;;;18.77;91.65;99953.13;5014316;28;20042;-78
2022/09/07 08:42:18;;;;;;;7.50;4.18;;;;;;;18.72;92.50;99950.78;5008579;28;20041;-80
2022/09/07 08:44:56;;;;;;;7.65;4.43;;;;;;;18.75;92.60;99955.50;5014025;28;20400;-80
2022/09/07 08:47:39;;;;;;;8.18;4.32;;;;;;;18.73;92.57;99932.25;5014338;28;20112;-80
2022/09/07 08:50:10;;;;;;;7.05;3.88;;;;;;;18.69;91.99;99924.00;5014307;28;20038;-80
2022/09/07 08:52:48;;;;;;;7.82;3.88;;;;;;;18.32;94.03;99916.06;5013768;28;20034;-78
2022/09/07 08:55:37;;;;;;;8.98;4.13;;;;;;;18.67;93.66;99925.56;5014120;28;20341;-77
2022/09/07 08:58:12;;;;;;;8.95;4.32;;;;;;;18.69;93.51;99929.50;5007182;28;20054;-78
2022/09/07 09:00:38;;;;;;;7.25;3.83;;;;;;;18.66;92.97;99954.31;5013397;28;20037;-78
2022/09/07 09:03:12;;;;;;;7.72;4.32;;;;;;;18.62;93.06;99957.03;5012391;28;20408;-77
2022/09/07 09:06:07;;;;;;;9.32;4.43;;;;;;;18.62;93.95;99954.28;5013369;28;20092;-80
2022/09/07 09:08:35;;;;;;;11.98;4.50;;;;;;;18.80;93.07;99963.38;5009248;28;20046;-78
2022/09/07 09:11:15;;;;;;;8.95;4.68;;;;;;;18.74;93.09;99969.69;5013549;28;20037;-76
2022/09/07 09:14:01;;;;;;;9.20;4.38;;;;;;;18.92;93.21;99967.72;5011890;28;20142;-78
2022/09/07 09:16:45;;;;;;;7.43;3.95;;;;;;;19.01;92.63;99964.56;5013395;28;20030;-78
2022/09/07 09:19:29;;;;;;;7.57;3.97;;;;;;;19.22;92.06;99972.81;5013060;28;20603;-77
2022/09/07 09:22:27;;;;;;;9.30;4.30;;;;;;;19.42;89.61;99971.22;5011896;28;20037;-77
2022/09/07 09:25:01;;;;;;;5.65;2.78;;;;;;;19.55;87.28;99973.59;5004173;28;20072;-79
2022/09/07 09:27:27;;;;;;;5.93;3.05;;;;;;;19.76;86.70;99963.25;5013371;28;20091;-79
2022/09/07 09:29:52;;;;;;;6.97;3.95;;;;;;;19.67;84.30;99956.59;5013187;28;20034;-78
2022/09/07 09:32:40;;;;;;;8.93;4.22;;;;;;;19.93;85.27;99966.34;5013080;28;20030;-79
2022/09/07 09:35:18;;;;;;;7.25;3.90;;;;;;;20.05;85.34;99955.63;5013228;28;20109;-78
2022/09/07 09:37:44;;;;;;;7.22;3.88;;;;;;;20.29;82.86;99961.41;5013040;28;20026;-78
2022/09/07 09:40:17;;;;;;;6.45;3.53;;;;;;;20.24;82.68;99956.31;5013043;28;20029;-78
2022/09/07 09:42:43;;;;;;;7.60;4.55;;;;;;;20.43;82.77;99962.16;5013030;28;20113;-78
2022/09/07 09:45:19;;;;;;;6.95;4.53;;;;;;;20.46;82.75;99959.75;5013063;28;20126;-79
2022/09/07 09:47:50;;;;;;;8.38;3.85;;;;;;;20.59;82.21;99967.19;5013162;28;20108;-78
2022/09/07 09:50:24;;;;;;;8.73;3.92;;;;;;;20.32;81.29;99964.19;5011767;28;20069;-78
2022/09/07 09:52:51;;;;;;;9.80;3.97;;;;;;;19.91;82.21;99968.72;5012916;28;20030;-80
2022/09/07 09:55:30;;;;;;;5.82;3.20;;;;;;;20.11;82.76;99970.59;5011397;28;20037;-78
2022/09/07 09:58:01;;;;;;;9.00;4.88;;;;;;;19.85;82.34;99979.41;5013365;28;20431;-78
2022/09/07 10:00:29;;;;;;;7.07;3.92;;;;;;;19.88;82.36;99975.06;5012834;28;20037;-79
2022/09/07 10:03:13;;;;;;;8.40;4.43;;;;;;;20.06;81.67;99979.31;5011699;28;20029;-78
2022/09/07 10:05:41;;;;;;;6.43;3.55;;;;;;;19.91;81.51;99971.47;5012621;28;20504;-77
2022/09/07 10:08:32;;;;;;;6.70;4.03;;;;;;;19.83;82.37;99976.25;5012346;28;20469;-78
2022/09/07 10:10:59;;;;;;;5.78;2.88;;;;;;;19.75;82.07;99977.47;5012209;28;20038;-78
2022/09/07 10:13:34;;;;;;;4.70;2.50;;;;;;;19.84;82.28;99983.34;5012519;28;20037;-78
2022/09/07 10:16:04;;;;;;;4.20;2.35;;;;;;;20.19;81.48;99984.41;5012868;28;20037;-79
2022/09/07 10:18:35;;;;;;;3.92;2.00;;;;;;;20.07;80.32;99975.34;5010872;28;20480;-79
2022/09/07 10:21:11;;;;;;;3.22;1.38;;;;;;;20.18;80.86;99980.84;5012181;28;20457;-79
2022/09/07 10:23:36;;;;;;;3.65;1.48;;;;;;;20.38;79.91;99981.13;5012577;28;20061;-78
2022/09/07 10:26:20;;;;;;;3.58;1.38;;;;;;;20.25;79.92;99978.03;5011068;28;20105;-78
2022/09/07 10:28:45;;;;;;;5.35;1.88;;;;;;;20.31;79.78;99981.16;5012161;28;20061;-78
2022/09/07 10:31:20;;;;;;;2.97;1.30;;;;;;;20.38;79.21;99975.59;5012187;28;20463;-78
2022/09/07 10:34:11;;;;;;;4.35;1.58;;;;;;;20.63;79.69;99981.75;5012308;28;20034;-78
2022/09/07 10:36:55;;;;;;;3.03;1.60;;;;;;;20.76;78.08;99979.31;5011288;28;20484;-78
2022/09/07 10:39:25;;;;;;;4.68;2.00;;;;;;;20.60;78.83;99981.78;5015957;28;20108;-78
2022/09/07 10:42:21;;;;;;;6.30;1.92;;;;;;;20.55;79.21;99980.25;5015085;28;20030;-78
2022/09/07 10:45:01;;;;;;;5.35;2.70;;;;;;;20.65;79.51;99990.44;5015087;28;20401;-79
2022/09/07 10:48:06;;;;;;;5.38;2.70;;;;;;;20.83;78.09;99982.03;5016111;28;20365;-78
2022/09/07 10:50:43;;;;;;;6.07;3.28;;;;;;;20.55;79.36;99996.84;5016534;28;20061;-79
2022/09/07 10:53:18;;;;;;;5.18;2.72;;;;;;;20.55;79.86;99988.56;5016472;28;20030;-77
2022/09/07 10:56:12;;;;;;;5.63;2.20;;;;;;;20.54;79.95;99988.97;5016153;28;20449;-78
2022/09/07 10:59:15;;;;;;;4.80;2.05;;;;;;;20.51;79.70;99985.03;5015541;28;20065;-79
2022/09/07 11:02:20;;;;;;;4.93;2.33;;;;;;;20.60;78.77;99977.03;5014629;28;20373;-76
2022/09/07 11:05:24;;;;;;;4.22;2.13;;;;;;;20.97;77.22;99975.56;5015520;28;20466;-78
2022/09/07 11:08:13;;;;;;;4.78;2.67;;;;;;;20.60;78.77;99979.81;4999883;28;20473;-77
2022/09/07 11:11:03;;;;;;;4.30;1.85;;;;;;;20.84;78.72;99971.75;5015696;28;20116;-79
2022/09/07 11:13:32;;;;;;;5.35;2.42;;;;;;;20.91;77.83;99974.44;5015619;28;20030;-79
2022/09/07 11:16:06;;;;;;;5.93;2.25;;;;;;;20.80;78.33;99968.22;5014276;28;20350;-77
2022/09/07 11:18:37;;;;;;;3.67;1.85;;;;;;;20.80;78.36;99974.53;5015590;28;20035;-78
2022/09/07 11:21:11;;;;;;;3.88;1.85;;;;;;;21.02;78.09;99962.09;5015405;28;20488;-79
2022/09/07 11:23:58;;;;;;;6.70;2.15;;;;;;;21.11;76.84;99960.81;5015560;28;20038;-79
2022/09/07 11:26:41;;;;;;;3.30;1.70;;;;;;;21.29;76.99;99965.03;5014624;28;20133;-78
2022/09/07 11:29:18;;;;;;;4.15;2.13;;;;;;;21.47;75.09;99958.50;5015291;28;20038;-77
2022/09/07 11:31:58;;;;;;;4.13;2.33;;;;;;;21.54;74.07;99959.25;5015494;28;20052;-78
2022/09/07 11:34:44;;;;;;;4.82;2.50;;;;;;;21.43;74.54;99955.78;5015807;28;20033;-78
2022/09/07 11:37:15;;;;;;;4.17;2.07;;;;;;;21.28;74.99;99966.22;5015118;28;20088;-78
2022/09/07 11:39:50;;;;;;;4.13;1.90;;;;;;;21.23;75.53;99969.41;5015086;28;20481;-78
2022/09/07 11:42:19;;;;;;;4.15;1.73;;;;;;;21.46;74.35;99954.97;5015832;28;20038;-79
2022/09/07 11:44:54;;;;;;;3.95;2.08;;;;;;;21.85;72.85;99951.75;5015174;28;20034;-78
2022/09/07 11:47:34;;;;;;;5.50;1.90;;;;;;;21.96;72.26;99948.81;5015859;28;20041;-78
2022/09/07 11:49:59;;;;;;;3.85;1.88;;;;;;;22.23;70.61;99940.59;5013424;28;20354;-79
2022/09/07 11:52:38;;;;;;;4.22;1.58;;;;;;;22.42;71.19;99953.78;5014151;28;20080;-78
2022/09/07 11:55:13;;;;;;;3.67;1.52;;;;;;;22.36;70.56;99944.34;5015303;28;20339;-78
2022/09/07 11:58:16;;;;;;;7.57;1.70;;;;;;;22.06;70.49;99945.16;5016129;28;20370;-78
2022/09/07 12:01:14;;;;;;;3.92;1.50;;;;;;;22.10;70.89;99942.34;5016895;28;20055;-79
2022/09/07 12:03:45;;;;;;;3.13;1.50;;;;;;;22.15;71.00;99937.09;4993480;28;20046;-77
2022/09/07 12:06:31;;;;;;;3.65;1.52;;;;;;;22.22;70.57;99936.25;5015212;28;20128;-79